createdAt,value
2022-11-13T00:01:25.763Z,101809.34
2022-11-13T00:04:12.893Z,101827.72
2022-11-13T00:07:00.416Z,101814.66
2022-11-13T00:09:47.263Z,101827.81
2022-11-13T00:12:34.230Z,101822.44
2022-11-13T00:15:21.349Z,101825.28
2022-11-13T00:18:09.850Z,101825.28
2022-11-13T00:20:58.693Z,101833.31
2022-11-13T00:23:46.121Z,101824.47
2022-11-13T00:26:32.861Z,101828.19
2022-11-13T00:29:21.132Z,101832.44
2022-11-13T00:32:08.251Z,101828.00
2022-11-13T00:34:55.320Z,101826.50
2022-11-13T00:37:42.083Z,101824.97
2022-11-13T00:40:29.422Z,101834.34
2022-11-13T00:43:16.160Z,101844.09
2022-11-13T00:46:03.717Z,101842.28
2022-11-13T00:48:50.400Z,101840.53
2022-11-13T00:51:37.760Z,101843.06
2022-11-13T00:54:24.760Z,101838.63
2022-11-13T00:57:13.570Z,101832.56
2022-11-13T01:00:00.282Z,101821.94
2022-11-13T01:02:47.363Z,101823.72
2022-11-13T01:05:43.299Z,101822.88
2022-11-13T01:08:31.083Z,101822.88
2022-11-13T01:11:23.530Z,101805.72
2022-11-13T01:14:10.741Z,101808.84
2022-11-13T01:16:57.689Z,101794.81
2022-11-13T01:19:46.150Z,101789.34
2022-11-13T01:22:33.012Z,101771.69
2022-11-13T01:25:20.519Z,101783.06
2022-11-13T01:28:07.270Z,101780.41
2022-11-13T01:30:54.750Z,101783.81
2022-11-13T01:33:41.561Z,101781.19
2022-11-13T01:36:29.600Z,101785.72
2022-11-13T01:39:16.635Z,101784.97
2022-11-13T01:42:04.532Z,101787.63
2022-11-13T01:44:54.320Z,101785.81
2022-11-13T01:47:41.530Z,101776.31
2022-11-13T01:50:28.794Z,101765.19
2022-11-13T01:53:17.029Z,101780.50
2022-11-13T01:56:04.591Z,101775.31
2022-11-13T01:58:59.851Z,101775.88
2022-11-13T02:01:46.896Z,101779.47
2022-11-13T02:04:34.501Z,101767.59
2022-11-13T02:07:22.060Z,101777.09
2022-11-13T02:10:10.270Z,101785.56
2022-11-13T02:12:56.950Z,101782.50
2022-11-13T02:15:45.154Z,101779.56
2022-11-13T02:18:32.000Z,101790.25
2022-11-13T02:21:52.733Z,101783.16
2022-11-13T02:24:45.535Z,101772.06
2022-11-13T02:27:50.122Z,101770.00
2022-11-13T02:30:37.626Z,101767.50
2022-11-13T02:33:30.860Z,101757.66
2022-11-13T02:36:17.930Z,101755.59
2022-11-13T02:39:09.411Z,101761.06
2022-11-13T02:41:56.464Z,101753.31
2022-11-13T02:44:44.010Z,101757.50
2022-11-13T02:47:30.820Z,101744.75
2022-11-13T02:50:18.359Z,101762.28
2022-11-13T02:53:05.492Z,101764.88
2022-11-13T02:55:52.530Z,101771.22
2022-11-13T02:58:39.590Z,101761.53
2022-11-13T03:01:26.876Z,101759.91
2022-11-13T03:04:13.651Z,101761.53
2022-11-13T03:07:01.905Z,101765.91
2022-11-13T03:09:48.730Z,101758.09
2022-11-13T03:12:36.081Z,101776.75
2022-11-13T03:15:23.313Z,101774.19
2022-11-13T03:18:12.294Z,101783.19
2022-11-13T03:21:05.484Z,101785.84
2022-11-13T03:23:54.274Z,101786.97
2022-11-13T03:26:41.380Z,101797.03
2022-11-13T03:29:28.521Z,101799.34
2022-11-13T03:32:15.490Z,101804.66
2022-11-13T03:35:02.814Z,101804.59
2022-11-13T03:37:49.612Z,101800.19
2022-11-13T03:40:37.100Z,101806.38
2022-11-13T03:43:24.365Z,101803.19
2022-11-13T03:46:11.889Z,101803.13
2022-11-13T03:48:58.821Z,101797.03
2022-11-13T03:51:47.702Z,101796.69
2022-11-13T03:54:34.789Z,101790.78
2022-11-13T03:57:22.802Z,101776.19
2022-11-13T04:00:11.219Z,101791.91
2022-11-13T04:02:59.090Z,101787.81
2022-11-13T04:05:48.019Z,101795.75
2022-11-13T04:08:36.059Z,101783.00
2022-11-13T04:11:23.180Z,101783.84
2022-11-13T04:14:10.229Z,101788.31
2022-11-13T04:16:56.924Z,101795.31
2022-11-13T04:19:45.070Z,101783.38
2022-11-13T04:22:32.129Z,101780.22
2022-11-13T04:25:20.900Z,101777.47
2022-11-13T04:28:07.609Z,101785.44
2022-11-13T04:30:55.291Z,101778.53
2022-11-13T04:33:42.039Z,101777.56
2022-11-13T04:36:29.320Z,101783.75
2022-11-13T04:39:16.408Z,101776.78
2022-11-13T04:42:23.569Z,101778.44
2022-11-13T04:45:10.782Z,101783.91
2022-11-13T04:47:59.180Z,101778.69
2022-11-13T04:50:46.789Z,101771.41
2022-11-13T04:53:35.200Z,101777.75
2022-11-13T04:56:21.977Z,101775.88
2022-11-13T04:59:09.420Z,101771.56
2022-11-13T05:01:56.492Z,101768.00
2022-11-13T05:04:43.479Z,101769.69
2022-11-13T05:07:30.700Z,101773.28
2022-11-13T05:10:18.229Z,101766.88
2022-11-13T05:13:04.859Z,101757.38
2022-11-13T05:16:00.518Z,101772.84
2022-11-13T05:18:47.340Z,101776.19
2022-11-13T05:21:39.699Z,101773.06
2022-11-13T05:24:26.178Z,101778.72
2022-11-13T05:27:17.469Z,101780.63
2022-11-13T05:30:06.213Z,101781.56
2022-11-13T05:32:53.441Z,101787.59
2022-11-13T05:35:40.393Z,101796.59
2022-11-13T05:38:29.457Z,101803.91
2022-11-13T05:41:21.889Z,101802.97
2022-11-13T05:44:09.261Z,101797.19
2022-11-13T05:46:56.124Z,101810.06
2022-11-13T05:49:43.393Z,101813.69
2022-11-13T05:52:30.589Z,101808.06
2022-11-13T05:55:23.006Z,101793.72
2022-11-13T05:58:12.102Z,101771.25
2022-11-13T06:01:29.287Z,101776.09
2022-11-13T06:04:16.161Z,101775.34
2022-11-13T06:07:04.509Z,101776.28
2022-11-13T06:09:51.260Z,101780.94
2022-11-13T06:12:39.850Z,101802.19
2022-11-13T06:15:26.781Z,101796.41
2022-11-13T06:18:13.959Z,101812.94
2022-11-13T06:21:17.879Z,101819.19
2022-11-13T06:24:05.873Z,101827.16
2022-11-13T06:26:54.009Z,101818.41
2022-11-13T06:29:42.251Z,101819.19
2022-11-13T06:32:29.469Z,101827.72
2022-11-13T06:35:17.019Z,101816.16
2022-11-13T06:38:04.240Z,101824.22
2022-11-13T06:40:51.659Z,101844.63
2022-11-13T06:43:38.920Z,101828.31
2022-11-13T06:46:28.651Z,101839.47
2022-11-13T06:49:15.852Z,101828.38
2022-11-13T06:52:03.280Z,101830.84
2022-11-13T06:54:50.431Z,101837.97
2022-11-13T06:57:39.153Z,101850.47
2022-11-13T07:00:25.981Z,101846.31
2022-11-13T07:03:26.850Z,101859.50
2022-11-13T07:06:22.828Z,101853.31
2022-11-13T07:09:11.356Z,101858.84
2022-11-13T07:11:58.541Z,101856.16
2022-11-13T07:14:46.012Z,101851.78
2022-11-13T07:17:33.011Z,101862.41
2022-11-13T07:20:20.210Z,101861.78
2022-11-13T07:23:07.622Z,101859.38
2022-11-13T07:25:55.780Z,101858.25
2022-11-13T07:28:42.914Z,101865.44
2022-11-13T07:31:31.240Z,101869.81
2022-11-13T07:34:18.120Z,101881.28
2022-11-13T07:37:07.110Z,101876.94
2022-11-13T07:39:54.291Z,101888.41
2022-11-13T07:42:43.012Z,101890.41
2022-11-13T07:45:29.955Z,101888.66
2022-11-13T07:48:17.323Z,101863.38
2022-11-13T07:51:04.322Z,101884.25
2022-11-13T07:53:51.431Z,101886.91
2022-11-13T07:56:38.352Z,101886.91
2022-11-13T07:59:25.751Z,101857.06
2022-11-13T08:02:16.371Z,101893.13
2022-11-13T08:05:04.074Z,101880.91
2022-11-13T08:07:52.176Z,101874.47
2022-11-13T08:10:41.132Z,101872.66
2022-11-13T08:13:28.062Z,101876.94
2022-11-13T08:16:16.505Z,101858.06
2022-11-13T08:19:04.236Z,101868.03
2022-11-13T08:21:51.452Z,101853.13
2022-11-13T08:24:39.392Z,101872.28
2022-11-13T08:27:26.612Z,101872.41
2022-11-13T08:30:14.601Z,101868.09
2022-11-13T08:33:03.272Z,101878.72
2022-11-13T08:35:58.522Z,101868.88
2022-11-13T08:38:45.822Z,101858.06
2022-11-13T08:41:33.564Z,101856.16
2022-11-13T08:44:20.890Z,101852.56
2022-11-13T08:47:07.822Z,101847.81
2022-11-13T08:49:55.712Z,101847.91
2022-11-13T08:52:42.869Z,101859.97
2022-11-13T08:55:30.254Z,101849.25
2022-11-13T08:58:17.293Z,101851.91
2022-11-13T09:01:05.431Z,101857.91
2022-11-13T09:03:52.329Z,101865.56
2022-11-13T09:06:39.761Z,101870.72
2022-11-13T09:09:26.500Z,101870.50
2022-11-13T09:12:13.724Z,101879.25
2022-11-13T09:15:00.562Z,101893.19
2022-11-13T09:17:47.941Z,101887.78
2022-11-13T09:20:35.111Z,101883.53
2022-11-13T09:23:22.552Z,101889.41
2022-11-13T09:26:09.590Z,101887.50
2022-11-13T09:28:56.712Z,101895.59
2022-11-13T09:31:43.881Z,101891.03
2022-11-13T09:34:33.831Z,101868.25
2022-11-13T09:37:21.068Z,101883.69
2022-11-13T09:40:12.218Z,101884.66
2022-11-13T09:43:01.045Z,101891.66
2022-11-13T09:45:48.671Z,101878.22
2022-11-13T09:48:38.574Z,101882.59
2022-11-13T09:51:30.748Z,101875.41
2022-11-13T09:54:17.627Z,101869.19
2022-11-13T09:57:26.301Z,101845.56
2022-11-13T10:00:19.931Z,101841.84
2022-11-13T10:03:23.962Z,101831.91
2022-11-13T10:06:39.510Z,101814.16
2022-11-13T10:09:55.520Z,101807.06
2022-11-13T10:12:42.753Z,101802.59
2022-11-13T10:15:30.041Z,101812.06
2022-11-13T10:18:30.638Z,101813.78
2022-11-13T10:21:37.700Z,101801.63
2022-11-13T10:24:37.979Z,101801.88
2022-11-13T10:27:26.518Z,101805.28
2022-11-13T10:30:18.672Z,101787.22
2022-11-13T10:33:08.593Z,101795.63
2022-11-13T10:36:19.920Z,101805.09
2022-11-13T10:39:08.890Z,101796.28
2022-11-13T10:41:56.320Z,101799.88
2022-11-13T10:44:57.736Z,101793.63
2022-11-13T10:48:03.632Z,101791.91
2022-11-13T10:51:15.591Z,101776.44
2022-11-13T10:54:22.053Z,101769.94
2022-11-13T10:57:33.701Z,101769.34
2022-11-13T11:00:34.386Z,101781.94
2022-11-13T11:03:23.979Z,101772.88
2022-11-13T11:06:11.020Z,101766.97
2022-11-13T11:09:21.311Z,101776.44
2022-11-13T11:12:23.104Z,101765.81
2022-11-13T11:15:51.761Z,101762.97
2022-11-13T11:18:54.570Z,101759.34
2022-11-13T11:21:43.041Z,101753.09
2022-11-13T11:24:37.481Z,101743.63
2022-11-13T11:27:47.003Z,101746.06
2022-11-13T11:30:53.838Z,101743.13
2022-11-13T11:34:40.273Z,101754.50
2022-11-13T11:37:41.355Z,101734.91
2022-11-13T11:40:42.399Z,101737.03
2022-11-13T11:43:39.631Z,101728.75
2022-11-13T11:46:28.739Z,101717.28
2022-11-13T11:49:15.862Z,101718.34
2022-11-13T11:53:02.371Z,101688.72
2022-11-13T11:56:40.570Z,101704.28
2022-11-13T12:00:01.746Z,101702.25
2022-11-13T12:03:32.741Z,101681.00
2022-11-13T12:06:32.424Z,101696.09
2022-11-13T12:09:40.590Z,101679.59
2022-11-13T12:12:58.650Z,101690.88
2022-11-13T12:16:09.860Z,101686.63
2022-11-13T12:19:23.418Z,101679.59
2022-11-13T12:22:30.563Z,101677.47
2022-11-13T12:25:44.470Z,101675.34
2022-11-13T12:28:56.972Z,101667.59
2022-11-13T12:31:58.669Z,101675.50
2022-11-13T12:34:52.871Z,101654.53
2022-11-13T12:38:13.040Z,101652.41
2022-11-13T12:41:15.147Z,101636.53
2022-11-13T12:44:24.872Z,101651.41
2022-11-13T12:47:12.000Z,101648.31
2022-11-13T12:50:31.692Z,101654.69
2022-11-13T12:53:31.269Z,101639.97
2022-11-13T12:56:28.852Z,101641.84
2022-11-13T12:59:34.068Z,101629.53
2022-11-13T13:02:32.573Z,101637.69
2022-11-13T13:05:46.664Z,101625.38
2022-11-13T13:09:22.071Z,101625.38
2022-11-13T13:12:36.678Z,101621.13
2022-11-13T13:15:36.469Z,101617.59
2022-11-13T13:18:29.975Z,101618.25
2022-11-13T13:21:18.864Z,101616.66
2022-11-13T13:24:27.349Z,101609.19
2022-11-13T13:27:26.548Z,101617.25
2022-11-13T13:30:22.529Z,101611.19
2022-11-13T13:33:15.477Z,101622.38
2022-11-13T13:36:21.349Z,101617.25
2022-11-13T13:39:48.626Z,101612.34
2022-11-13T13:43:05.497Z,101621.63
2022-11-13T13:46:11.017Z,101614.59
2022-11-13T13:49:07.017Z,101621.81
2022-11-13T13:51:55.757Z,101607.78
2022-11-13T13:54:42.893Z,101617.44
2022-11-13T13:57:30.638Z,101611.38
2022-11-13T14:00:19.525Z,101613.94
2022-11-13T14:03:20.143Z,101599.38
2022-11-13T14:06:24.733Z,101611.59
2022-11-13T14:09:23.439Z,101609.88
2022-11-13T14:12:22.114Z,101617.66
2022-11-13T14:15:28.790Z,101614.25
2022-11-13T14:18:17.849Z,101603.28
2022-11-13T14:21:16.180Z,101616.06
2022-11-13T14:24:03.923Z,101617.09
2022-11-13T14:26:53.129Z,101612.75
2022-11-13T14:29:52.758Z,101607.84
2022-11-13T14:32:45.704Z,101609.44
2022-11-13T14:35:34.167Z,101620.06
2022-11-13T14:38:26.823Z,101618.25
2022-11-13T14:41:50.346Z,101624.53
2022-11-13T14:44:37.503Z,101628.13
2022-11-13T14:47:28.786Z,101623.66
2022-11-13T14:50:24.293Z,101613.75
2022-11-13T14:53:11.620Z,101603.88
2022-11-13T14:56:12.295Z,101621.13
2022-11-13T14:59:18.348Z,101615.91
2022-11-13T15:02:07.354Z,101620.25
2022-11-13T15:04:54.147Z,101616.00
2022-11-13T15:07:42.775Z,101608.97
2022-11-13T15:10:30.515Z,101614.28
2022-11-13T15:13:18.547Z,101604.06
2022-11-13T15:16:06.123Z,101610.78
2022-11-13T15:19:14.128Z,101613.53
2022-11-13T15:25:20.693Z,101610.13
2022-11-13T15:28:07.579Z,101613.00
2022-11-13T15:30:55.256Z,101614.69
2022-11-13T15:33:42.395Z,101609.75
2022-11-13T15:36:30.595Z,101594.97
2022-11-13T15:39:23.378Z,101613.16
2022-11-13T15:42:17.345Z,101606.34
2022-11-13T15:45:07.695Z,101617.63
2022-11-13T15:47:55.165Z,101605.13
2022-11-13T15:50:41.983Z,101610.25
2022-11-13T15:53:29.576Z,101611.94
2022-11-13T15:56:17.004Z,101609.38
2022-11-13T15:59:04.137Z,101604.06
2022-11-13T16:01:54.067Z,101604.94
2022-11-13T16:04:55.954Z,101591.94
2022-11-13T16:07:43.620Z,101604.72
2022-11-13T16:10:31.064Z,101600.38
2022-11-13T16:13:18.292Z,101593.16
2022-11-13T16:16:08.383Z,101597.97
2022-11-13T16:18:59.988Z,101605.22
2022-11-13T16:21:48.594Z,101600.16
2022-11-13T16:24:35.587Z,101604.47
2022-11-13T16:27:31.805Z,101592.00
2022-11-13T16:30:23.732Z,101609.53
2022-11-13T16:33:11.293Z,101594.13
2022-11-13T16:35:58.510Z,101613.81
2022-11-13T16:38:45.688Z,101609.81
2022-11-13T16:41:32.755Z,101614.06
2022-11-13T16:44:20.211Z,101609.56
2022-11-13T16:47:08.283Z,101619.38
2022-11-13T16:49:55.808Z,101612.22
2022-11-13T16:52:43.463Z,101618.63
2022-11-13T16:55:31.319Z,101617.78
2022-11-13T16:58:19.511Z,101632.75
2022-11-13T17:01:07.144Z,101624.78
2022-11-13T17:03:54.314Z,101630.09
2022-11-13T17:06:41.783Z,101636.50
2022-11-13T17:09:29.514Z,101635.63
2022-11-13T17:12:19.144Z,101633.09
2022-11-13T17:15:09.875Z,101627.03
2022-11-13T17:17:58.946Z,101623.72
2022-11-13T17:20:51.322Z,101625.41
2022-11-13T17:23:38.828Z,101628.06
2022-11-13T17:26:26.193Z,101624.56
2022-11-13T17:29:13.865Z,101619.25
2022-11-13T17:32:01.429Z,101624.66
2022-11-13T17:34:49.913Z,101625.72
2022-11-13T17:37:36.843Z,101626.56
2022-11-13T17:40:24.213Z,101630.28
2022-11-13T17:43:11.862Z,101622.41
2022-11-13T17:45:59.544Z,101632.94
2022-11-13T17:48:48.692Z,101627.72
2022-11-13T17:51:36.003Z,101634.03
2022-11-13T17:54:23.735Z,101634.13
2022-11-13T17:57:13.033Z,101641.13
2022-11-13T17:59:59.944Z,101627.19
2022-11-13T18:02:47.082Z,101632.31
2022-11-13T18:05:40.470Z,101636.78
2022-11-13T18:08:28.176Z,101632.63
2022-11-13T18:11:19.793Z,101631.22
2022-11-13T18:14:06.772Z,101642.59
2022-11-13T18:16:53.853Z,101646.09
2022-11-13T18:19:41.338Z,101641.94
2022-11-13T18:22:28.773Z,101643.00
2022-11-13T18:25:15.976Z,101632.94
2022-11-13T18:28:03.275Z,101645.06
2022-11-13T18:30:56.131Z,101638.16
2022-11-13T18:33:45.810Z,101644.41
2022-11-13T18:36:35.851Z,101647.16
2022-11-13T18:39:23.796Z,101635.03
2022-11-13T18:42:10.783Z,101642.06
2022-11-13T18:45:00.536Z,101644.63
2022-11-13T18:47:52.784Z,101642.72
2022-11-13T18:50:41.603Z,101641.66
2022-11-13T18:53:34.330Z,101640.72
2022-11-13T18:56:25.058Z,101645.06
2022-11-13T18:59:27.250Z,101639.75
2022-11-13T19:02:16.573Z,101646.81
2022-11-13T19:05:06.669Z,101649.50
2022-11-13T19:07:56.812Z,101650.38
2022-11-13T19:10:44.988Z,101645.47
2022-11-13T19:13:35.078Z,101646.03
2022-11-13T19:16:26.473Z,101642.72
2022-11-13T19:19:20.628Z,101655.66
2022-11-13T19:22:09.244Z,101654.81
2022-11-13T19:24:57.203Z,101662.78
2022-11-13T19:27:44.461Z,101657.47
2022-11-13T19:30:32.623Z,101661.03
2022-11-13T19:33:19.538Z,101664.66
2022-11-13T19:36:13.033Z,101666.34
2022-11-13T19:39:00.136Z,101646.41
2022-11-13T19:41:47.318Z,101655.81
2022-11-13T19:44:34.389Z,101658.38
2022-11-13T19:47:21.809Z,101659.22
2022-11-13T19:50:10.403Z,101650.47
2022-11-13T19:52:58.083Z,101665.44
2022-11-13T19:55:58.049Z,101655.81
2022-11-13T19:58:47.011Z,101665.50
2022-11-13T20:01:34.185Z,101662.84
2022-11-13T20:04:23.413Z,101666.28
2022-11-13T20:07:11.590Z,101667.13
2022-11-13T20:09:58.554Z,101661.81
2022-11-13T20:12:46.449Z,101661.81
2022-11-13T20:15:34.969Z,101666.34
2022-11-13T20:18:21.954Z,101657.47
2022-11-13T20:21:09.014Z,101661.03
2022-11-13T20:23:56.859Z,101647.38
2022-11-13T20:26:44.033Z,101655.94
2022-11-13T20:29:33.099Z,101657.63
2022-11-13T20:32:21.454Z,101654.03
2022-11-13T20:35:09.479Z,101655.94
2022-11-13T20:37:58.773Z,101656.88
2022-11-13T20:40:45.838Z,101636.94
2022-11-13T20:43:33.419Z,101651.44
2022-11-13T20:46:21.360Z,101652.31
2022-11-13T20:49:08.755Z,101649.75
2022-11-13T20:51:57.308Z,101653.28
2022-11-13T20:54:45.283Z,101652.47
2022-11-13T20:57:39.665Z,101649.94
2022-11-13T21:00:28.784Z,101653.56
2022-11-13T21:03:16.383Z,101653.56
2022-11-13T21:06:03.839Z,101649.28
2022-11-13T21:08:53.863Z,101643.22
2022-11-13T21:11:42.318Z,101646.72
2022-11-13T21:14:29.189Z,101652.91
2022-11-13T21:17:16.913Z,101647.69
2022-11-13T21:20:05.348Z,101652.22
2022-11-13T21:22:54.204Z,101656.53
2022-11-13T21:25:40.866Z,101657.28
2022-11-13T21:28:32.432Z,101648.72
2022-11-13T21:31:21.593Z,101652.91
2022-11-13T21:34:10.324Z,101648.81
2022-11-13T21:36:57.478Z,101649.19
2022-11-13T21:39:44.954Z,101644.81
2022-11-13T21:42:32.104Z,101643.31
2022-11-13T21:45:19.919Z,101642.56
2022-11-13T21:48:07.428Z,101643.50
2022-11-13T21:50:55.158Z,101644.06
2022-11-13T21:53:43.328Z,101645.38
2022-11-13T21:56:32.458Z,101653.84
2022-11-13T21:59:19.830Z,101633.41
2022-11-13T22:02:10.638Z,101638.13
2022-11-13T22:04:57.829Z,101631.75
2022-11-13T22:07:46.571Z,101636.69
2022-11-13T22:10:33.889Z,101635.59
2022-11-13T22:13:21.455Z,101631.22
2022-11-13T22:16:09.579Z,101626.88
2022-11-13T22:18:59.341Z,101638.38
2022-11-13T22:21:46.839Z,101632.19
2022-11-13T22:24:34.639Z,101626.03
2022-11-13T22:27:22.110Z,101619.41
2022-11-13T22:30:11.219Z,101622.00
2022-11-13T22:32:58.692Z,101619.53
2022-11-13T22:35:46.474Z,101628.16
2022-11-13T22:38:35.332Z,101623.78
2022-11-13T22:41:30.932Z,101617.28
2022-11-13T22:44:18.242Z,101622.28
2022-11-13T22:47:05.755Z,101627.59
2022-11-13T22:49:52.900Z,101623.25
2022-11-13T22:52:42.129Z,101627.59
2022-11-13T22:55:29.105Z,101628.56
2022-11-13T22:58:16.877Z,101630.47
2022-11-13T23:01:16.094Z,101616.81
2022-11-13T23:04:06.719Z,101622.69
2022-11-13T23:06:53.956Z,101625.44
2022-11-13T23:09:41.950Z,101622.78
2022-11-13T23:12:29.230Z,101604.66
2022-11-13T23:15:16.830Z,101622.13
2022-11-13T23:18:09.529Z,101618.59
2022-11-13T23:20:58.760Z,101616.16
2022-11-13T23:23:46.310Z,101599.75
2022-11-13T23:26:33.541Z,101608.28
2022-11-13T23:29:20.664Z,101603.91
2022-11-13T23:32:09.494Z,101596.91
2022-11-13T23:34:59.800Z,101595.19
2022-11-13T23:37:47.788Z,101592.75
2022-11-13T23:40:35.210Z,101590.09
2022-11-13T23:43:36.486Z,101591.13
2022-11-13T23:46:32.017Z,101592.09
2022-11-13T23:49:19.330Z,101595.69
2022-11-13T23:52:06.360Z,101591.25
2022-11-13T23:54:53.831Z,101585.56
2022-11-13T23:57:41.164Z,101602.91
